Flight Track Log - Related Links

Times and Time Zones

All times are in EST time to prevent confusion due to time zone crossing. See the CCA985 flight status page for this flight to view local times or setup timezone preferences in your user account.

Time Position Orientation Groundspeed Altitude Reporting Facility
EST Latitude Longitude Course Direction KTS MPH feet Rate Location/Type
Thu 11:03:00 PM 30.2892 107.1116 35° Northeast  Level Estimated
Thu 11:04:00 PM 30.4030 107.2064 36° Northeast  Level Estimated
Thu 11:05:00 PM 30.5167 107.3014 36° Northeast  Level Estimated
Thu 11:06:00 PM 30.6303 107.3966 36° Northeast  Level Estimated
Thu 11:07:00 PM 30.7439 107.4921 36° Northeast  Level Estimated
Thu 11:08:00 PM 30.8574 107.5877 36° Northeast  Level Estimated
Thu 11:09:00 PM 30.9708 107.6836 36° Northeast  Level Estimated
Thu 11:10:00 PM 31.0841 107.7798 36° Northeast  Level Estimated
Thu 11:11:00 PM 31.1974 107.8761 36° Northeast  Level Estimated
Thu 11:12:00 PM 31.3106 107.9727 36° Northeast  Level Estimated
Thu 11:13:00 PM 31.4237 108.0695 36° Northeast  Level Estimated
Thu 11:14:00 PM 31.5368 108.1666 36° Northeast  Level Estimated
Thu 11:15:00 PM 31.6498 108.2638 36° Northeast  Level Estimated
Thu 11:16:00 PM 31.7627 108.3614 36° Northeast  Level Estimated
Thu 11:17:00 PM 31.8755 108.4591 36° Northeast  Level Estimated
Thu 11:18:00 PM 31.9883 108.5571 36° Northeast  Level Estimated
Thu 11:19:00 PM 32.1010 108.6554 36° Northeast  Level Estimated
Thu 11:20:00 PM 32.2136 108.7538 36° Northeast  Level Estimated
Thu 11:21:00 PM 32.3261 108.8526 37° Northeast  Level Estimated
Thu 11:22:00 PM 32.4386 108.9515 37° Northeast  Level Estimated
Thu 11:23:00 PM 32.5510 109.0508 37° Northeast  Level Estimated
Thu 11:24:00 PM 32.6633 109.1502 37° Northeast  Level Estimated
Thu 11:25:00 PM 32.7755 109.2499 37° Northeast  Level Estimated
Thu 11:26:00 PM 32.8876 109.3499 37° Northeast  Level Estimated
Thu 11:27:00 PM 32.9997 109.4501 37° Northeast  Level Estimated
Thu 11:28:00 PM 33.1117 109.5506 37° Northeast  Level Estimated
Thu 11:29:00 PM 33.2236 109.6514 37° Northeast  Level Estimated
Thu 11:30:00 PM 33.3354 109.7523 37° Northeast  Level Estimated
Thu 11:31:00 PM 33.4471 109.8536 37° Northeast  Level Estimated
Thu 11:32:00 PM 33.5588 109.9551 37° Northeast  Level Estimated
Thu 11:33:00 PM 33.6704 110.0569 37° Northeast  Level Estimated
Thu 11:34:00 PM 33.7819 110.1589 37° Northeast  Level Estimated
Thu 11:35:00 PM 33.8933 110.2612 37° Northeast  Level Estimated
Thu 11:36:00 PM 34.0046 110.3638 37° Northeast  Level Estimated
Thu 11:37:00 PM 34.1158 110.4667 37° Northeast  Level Estimated
Thu 11:38:00 PM 34.2270 110.5698 37° Northeast  Level Estimated
Thu 11:39:00 PM 34.3380 110.6731 38° Northeast  Level Estimated
Thu 11:40:00 PM 34.4490 110.7768 38° Northeast  Level Estimated
Thu 11:41:00 PM 34.5599 110.8808 38° Northeast  Level Estimated
Thu 11:42:00 PM 34.6707 110.9850 38° Northeast  Level Estimated
Thu 11:43:00 PM 34.7814 111.0894 38° Northeast  Level Estimated
Thu 11:44:00 PM 34.8920 111.1942 38° Northeast  Level Estimated
Thu 11:45:00 PM 35.0026 111.2993 38° Northeast  Level Estimated
Thu 11:46:00 PM 35.1130 111.4046 38° Northeast  Level Estimated
Thu 11:47:00 PM 35.2234 111.5102 38° Northeast  Level Estimated
Thu 11:48:00 PM 35.3336 111.6162 38° Northeast  Level Estimated
Thu 11:49:00 PM 35.4438 111.7224 38° Northeast  Level Estimated
Thu 11:50:00 PM 35.5539 111.8288 38° Northeast  Level Estimated
Thu 11:51:00 PM 35.6638 111.9356 38° Northeast  Level Estimated
Thu 11:52:00 PM 35.7737 112.0427 38° Northeast  Level Estimated
Thu 11:53:00 PM 35.8835 112.1501 38° Northeast  Level Estimated
Thu 11:54:00 PM 35.9932 112.2578 38° Northeast  Level Estimated
Thu 11:55:00 PM 36.1028 112.3658 39° Northeast  Level Estimated
Thu 11:56:00 PM 36.2123 112.4740 39° Northeast  Level Estimated
Thu 11:57:00 PM 36.3217 112.5826 39° Northeast  Level Estimated
Thu 11:58:00 PM 36.4310 112.6915 39° Northeast  Level Estimated
Thu 11:59:00 PM 36.5402 112.8007 39° Northeast  Level Estimated
Fri 12:00:00 AM 36.6493 112.9102 39° Northeast  Level Estimated
Fri 12:01:00 AM 36.7583 113.0200 39° Northeast  Level Estimated
Fri 12:02:00 AM 36.8672 113.1301 39° Northeast  Level Estimated
Fri 12:03:00 AM 36.9760 113.2406 39° Northeast  Level Estimated
Fri 12:04:00 AM 37.0847 113.3513 39° Northeast  Level Estimated
Fri 12:05:00 AM 37.1933 113.4624 39° Northeast  Level Estimated
Fri 12:06:00 AM 37.3018 113.5738 39° Northeast  Level Estimated
Fri 12:07:00 AM 37.4102 113.6855 39° Northeast  Level Estimated
Fri 12:08:00 AM 37.5185 113.7975 39° Northeast  Level Estimated
Fri 12:09:00 AM 37.6266 113.9099 39° Northeast  Level Estimated
Fri 12:10:00 AM 37.7347 114.0226 39° Northeast  Level Estimated
Fri 12:11:00 AM 37.8427 114.1356 40° Northeast  Level Estimated
Fri 12:12:00 AM 37.9505 114.2489 40° Northeast  Level Estimated
Fri 12:13:00 AM 38.0582 114.3626 40° Northeast  Level Estimated
Fri 12:14:00 AM 38.1659 114.4766 40° Northeast  Level Estimated
Fri 12:15:00 AM 38.2734 114.5910 40° Northeast  Level Estimated
Fri 12:16:00 AM 38.3808 114.7057 40° Northeast  Level Estimated
Fri 12:17:00 AM 38.4881 114.8207 40° Northeast  Level Estimated
Fri 12:18:00 AM 38.5953 114.9361 40° Northeast  Level Estimated
Fri 12:19:00 AM 38.7024 115.0518 40° Northeast  Level Estimated
Fri 12:20:00 AM 38.8093 115.1679 40° Northeast  Level Estimated
Fri 12:21:00 AM 38.9162 115.2843 40° Northeast  Level Estimated
Fri 12:22:00 AM 39.0229 115.4011 40° Northeast  Level Estimated
Fri 12:23:00 AM 39.1295 115.5182 40° Northeast  Level Estimated
Fri 12:24:00 AM 39.2360 115.6357 40° Northeast  Level Estimated
Fri 12:25:00 AM 39.3424 115.7535 41° Northeast  Level Estimated
Fri 12:26:00 AM 39.4486 115.8717 41° Northeast  Level Estimated
Fri 12:27:00 AM 39.5547 115.9903 41° Northeast  Level Estimated
Fri 12:28:00 AM 39.6608 116.1092 41° Northeast  Level Estimated
Fri 12:29:00 AM 39.7666 116.2285 41° Northeast  Level Estimated
Fri 12:30:00 AM 39.8724 116.3481 41° Northeast  Level Estimated
Fri 12:31:00 AM 39.9781 116.4681 41° Northeast  Level Estimated
Fri 12:32:00 AM 40.0801 116.5846 41° Northeast  Level Estimated
Fri 12:33:00 AM 40.0801 116.5846 288° West  Level Estimated
Fri 12:34:00 AM 40.0801 116.5846 288° West  Level Estimated
Fri 12:35:00 AM 40.0801 116.5846 288° West  Level Estimated
Fri 12:36:00 AM 40.0801 116.5846 288° West  Level Estimated
Fri 12:37:00 AM 40.0801 116.5846 288° West  Level Estimated
Fri 12:38:00 AM 40.0801 116.5846 288° West  Level Estimated
Fri 12:39:00 AM 40.0801 116.5846 288° West  Level Estimated
Fri 12:40:00 AM 40.0801 116.5846 288° West  Level Estimated
Fri 12:41:00 AM 40.0801 116.5846 288° West  Level Estimated
Fri 12:42:00 AM 40.0801 116.5846 288° West  Level Estimated
Fri 12:43:00 AM 40.0801 116.5846 288° West  Level Estimated
Fri 12:44:00 AM 40.0801 116.5846 288° West  Level Estimated
Fri 12:45:00 AM 40.0801 116.5846 288° West  Level Estimated
Fri 12:46:00 AM 40.0801 116.5846 288° West  Level Estimated
Fri 12:47:00 AM 40.0801 116.5846 288° West  Level Estimated
Fri 12:48:00 AM 40.0801 116.5846 288° West  Level Estimated

Login

Don't have an account? Register now (free) for customized features, flight alerts, and more!